Time;durP1;ratioP1;P1;durP2;ratioP2;P2;SDS_P1;SDS_P2;PMS_P1;PMS_P2;Temp;Humidity;BMP_temperature;BMP_pressure;BME280_temperature;BME280_humidity;BME280_pressure;Samples;Min_cycle;Max_cycle;Signal;HPM_P1;HPM_P2
2023/12/29 00:00:41;;;;;;;10.55;2.25;;;;;;;8.62;100.00;100305.84;5040749;28;20068;-71
2023/12/29 00:03:27;;;;;;;12.60;2.50;;;;;;;8.62;100.00;100295.28;5044714;28;20775;-70
2023/12/29 00:06:12;;;;;;;11.50;2.10;;;;;;;8.64;100.00;100289.03;5034935;28;20036;-70
2023/12/29 00:09:00;;;;;;;11.73;2.42;;;;;;;8.65;100.00;100303.06;5042681;28;20052;-71
2023/12/29 00:11:47;;;;;;;11.15;2.03;;;;;;;8.65;100.00;100295.13;5043295;28;20514;-71
2023/12/29 00:14:33;;;;;;;7.30;1.88;;;;;;;8.64;100.00;100282.88;5039775;28;20891;-71
2023/12/29 00:17:19;;;;;;;11.32;2.30;;;;;;;8.64;100.00;100291.66;5014114;28;20122;-71
2023/12/29 00:20:05;;;;;;;8.77;1.98;;;;;;;8.63;100.00;100273.25;5042594;28;20052;-71
2023/12/29 00:22:51;;;;;;;10.27;2.38;;;;;;;8.62;100.00;100282.09;5040609;28;20037;-70
2023/12/29 00:25:37;;;;;;;8.65;1.85;;;;;;;8.62;100.00;100275.06;5041631;28;20044;-72
2023/12/29 00:28:23;;;;;;;9.90;2.00;;;;;;;8.63;100.00;100273.25;5029136;28;20049;-71
2023/12/29 00:31:09;;;;;;;13.98;2.47;;;;;;;8.66;100.00;100281.88;5044617;28;20045;-71
2023/12/29 00:33:54;;;;;;;11.10;2.38;;;;;;;8.66;100.00;100268.69;5042228;28;20530;-71
2023/12/29 00:36:40;;;;;;;10.15;1.88;;;;;;;8.67;100.00;100264.28;5043735;28;20036;-70
2023/12/29 00:39:29;;;;;;;14.77;2.28;;;;;;;8.65;100.00;100269.63;5041334;28;20131;-71
2023/12/29 00:42:15;;;;;;;8.73;1.90;;;;;;;8.65;100.00;100252.91;5030087;28;20117;-71
2023/12/29 00:45:01;;;;;;;16.33;2.53;;;;;;;8.63;100.00;100249.50;5041913;28;20104;-71
2023/12/29 00:47:48;;;;;;;11.40;1.83;;;;;;;8.61;100.00;100251.38;5027401;28;20561;-71
2023/12/29 00:50:33;;;;;;;15.82;2.40;;;;;;;8.58;100.00;100249.72;5039230;28;20056;-71
2023/12/29 00:53:19;;;;;;;10.07;2.25;;;;;;;8.56;100.00;100218.13;5040574;28;20205;-71
2023/12/29 00:56:11;;;;;;;9.65;1.63;;;;;;;8.57;100.00;100213.72;5027183;28;20123;-70
2023/12/29 00:58:57;;;;;;;9.73;1.40;;;;;;;8.56;100.00;100218.13;5038029;28;20060;-71
2023/12/29 01:01:44;;;;;;;17.60;2.30;;;;;;;8.57;100.00;100213.72;5039856;28;20068;-70
2023/12/29 01:04:30;;;;;;;13.50;2.10;;;;;;;8.57;100.00;100219.00;5025877;28;20574;-70
2023/12/29 01:07:15;;;;;;;8.80;1.92;;;;;;;8.56;100.00;100207.56;5037759;28;20041;-71
2023/12/29 01:10:01;;;;;;;12.52;2.22;;;;;;;8.58;100.00;100206.63;5026682;28;20045;-70
2023/12/29 01:12:47;;;;;;;15.13;2.78;;;;;;;8.61;100.00;100206.50;5037041;28;20122;-71
2023/12/29 01:15:33;;;;;;;11.43;2.28;;;;;;;8.61;100.00;100209.16;5037624;28;20487;-70
2023/12/29 01:18:19;;;;;;;10.82;2.70;;;;;;;8.63;100.00;100216.06;5038997;28;20045;-71
2023/12/29 01:21:04;;;;;;;21.65;2.83;;;;;;;8.65;100.00;100194.84;5023668;28;20499;-70
2023/12/29 01:24:03;;;;;;;11.38;2.30;;;;;;;8.67;100.00;100212.34;5030444;28;20045;-74
2023/12/29 01:26:49;;;;;;;9.95;1.63;;;;;;;8.67;100.00;100209.69;5043513;28;20069;-71
2023/12/29 01:29:35;;;;;;;13.80;1.88;;;;;;;8.63;100.00;100194.09;5044675;28;20037;-72
2023/12/29 01:37:52;;;;;;;8.73;1.65;;;;;;;8.60;100.00;100202.16;5045082;23;20049;-71
2023/12/29 01:40:47;;;;;;;4.93;1.45;;;;;;;8.59;100.00;100179.31;5028623;28;20049;-71
2023/12/29 01:43:33;;;;;;;7.68;1.60;;;;;;;8.59;100.00;100168.75;5020249;28;20053;-71
2023/12/29 01:46:37;;;;;;;9.13;1.73;;;;;;;8.58;100.00;100174.97;5020332;28;20108;-72
2023/12/29 01:49:33;;;;;;;7.35;1.30;;;;;;;8.58;100.00;100167.06;5035642;28;20116;-72
2023/12/29 01:55:43;;;;;;;7.82;1.30;;;;;;;8.48;100.00;100171.88;5018481;28;20116;-70
2023/12/29 01:58:38;;;;;;;5.93;1.20;;;;;;;8.43;100.00;100165.06;5031484;23;20052;-71
2023/12/29 02:01:24;;;;;;;8.15;1.50;;;;;;;8.39;100.00;100179.31;5202305;23;20325;-72
2023/12/29 02:04:38;;;;;;;7.95;1.83;;;;;;;8.38;100.00;100193.44;5024383;28;20118;-72
2023/12/29 02:07:24;;;;;;;4.38;1.35;;;;;;;8.34;100.00;100194.50;4999753;28;20041;-72
2023/12/29 02:10:13;;;;;;;5.53;1.23;;;;;;;8.28;100.00;100192.13;5004673;28;20057;-74
2023/12/29 02:13:00;;;;;;;8.07;1.30;;;;;;;8.24;100.00;100193.22;4992359;28;20045;-71
2023/12/29 02:15:46;;;;;;;7.63;1.80;;;;;;;8.23;100.00;100200.25;4981585;28;20054;-72
2023/12/29 02:18:34;;;;;;;9.38;1.92;;;;;;;8.25;100.00;100195.81;5003835;28;20038;-71
2023/12/29 02:21:30;;;;;;;6.88;1.60;;;;;;;8.29;100.00;100210.53;5005913;28;20043;-73
2023/12/29 02:24:17;;;;;;;5.72;1.40;;;;;;;8.32;100.00;100208.69;5038553;23;20151;-73
2023/12/29 02:27:13;;;;;;;9.40;2.13;;;;;;;8.33;100.00;100229.72;5026982;28;20128;-72
2023/12/29 02:30:20;;;;;;;13.95;1.85;;;;;;;8.37;100.00;100217.22;5039460;28;20059;-73
2023/12/29 02:33:10;;;;;;;10.43;1.90;;;;;;;8.39;100.00;100207.50;5033791;28;20036;-72
2023/12/29 02:35:58;;;;;;;14.07;2.72;;;;;;;8.42;100.00;100216.13;5033615;28;20084;-72
2023/12/29 02:38:54;;;;;;;18.48;2.88;;;;;;;8.47;100.00;100210.63;5033176;28;20072;-74
2023/12/29 02:41:40;;;;;;;11.57;2.13;;;;;;;8.55;100.00;100197.94;5038409;28;20221;-72
2023/12/29 02:44:26;;;;;;;16.48;3.10;;;;;;;8.58;100.00;100209.28;5041495;23;20057;-72
2023/12/29 02:47:11;;;;;;;15.07;2.58;;;;;;;8.61;100.00;100198.59;4995244;28;20026;-73
2023/12/29 02:49:57;;;;;;;19.10;2.85;;;;;;;8.63;100.00;100200.22;4994955;28;20053;-73
2023/12/29 02:52:43;;;;;;;16.95;2.65;;;;;;;8.67;100.00;100214.13;5016692;28;20021;-72
2023/12/29 02:55:29;;;;;;;16.02;2.95;;;;;;;8.70;100.00;100195.50;5022587;28;20038;-71
2023/12/29 02:58:14;;;;;;;10.30;2.55;;;;;;;8.71;100.00;100197.22;5009299;28;20477;-72
2023/12/29 03:01:00;;;;;;;18.17;3.00;;;;;;;8.71;100.00;100191.09;5018184;28;20143;-73
2023/12/29 03:03:48;;;;;;;15.48;2.65;;;;;;;8.71;100.00;100199.00;4977735;28;20105;-72
2023/12/29 03:06:37;;;;;;;12.50;2.33;;;;;;;8.70;100.00;100198.13;4978280;28;20058;-72
2023/12/29 03:09:27;;;;;;;16.35;2.58;;;;;;;8.70;100.00;100208.69;5054660;23;20053;-71
2023/12/29 03:12:13;;;;;;;16.77;2.60;;;;;;;8.70;100.00;100200.78;5029094;28;20037;-72
2023/12/29 03:14:59;;;;;;;15.80;2.97;;;;;;;8.74;100.00;100199.72;5026683;28;20096;-73
2023/12/29 03:17:58;;;;;;;11.50;2.20;;;;;;;8.74;100.00;100207.63;5049813;28;20117;-75
2023/12/29 03:21:10;;;;;;;16.05;2.80;;;;;;;8.74;100.00;100209.41;5016881;28;20392;-73
2023/12/29 03:23:56;;;;;;;12.82;2.03;;;;;;;8.71;100.00;100223.59;5017042;28;20139;-72
2023/12/29 03:26:50;;;;;;;11.65;2.50;;;;;;;8.67;100.00;100211.50;5005219;28;20045;-71
2023/12/29 03:29:36;;;;;;;12.10;2.08;;;;;;;8.63;100.00;100207.28;5008256;28;20029;-72
2023/12/29 03:32:22;;;;;;;8.65;1.92;;;;;;;8.58;100.00;100210.16;5018630;28;20930;-72
2023/12/29 03:35:07;;;;;;;13.50;2.30;;;;;;;8.52;100.00;100211.31;5019778;28;20048;-71
2023/12/29 03:37:53;;;;;;;16.23;2.50;;;;;;;8.46;100.00;100201.00;5007096;28;20049;-72
2023/12/29 03:40:39;;;;;;;13.98;2.45;;;;;;;8.37;100.00;100214.59;5017159;28;20041;-73
2023/12/29 03:43:25;;;;;;;11.98;2.20;;;;;;;8.34;100.00;100212.94;5014562;28;20042;-72
2023/12/29 03:46:18;;;;;;;12.25;2.10;;;;;;;8.33;100.00;100207.78;5017502;28;20041;-71
2023/12/29 03:49:04;;;;;;;12.60;2.22;;;;;;;8.32;100.00;100213.97;5017193;28;20037;-72
2023/12/29 03:51:50;;;;;;;13.13;2.05;;;;;;;8.35;100.00;100213.81;5013955;28;20136;-72
2023/12/29 03:54:35;;;;;;;13.18;2.08;;;;;;;8.38;100.00;100211.03;4988634;28;20050;-72
2023/12/29 03:57:21;;;;;;;14.75;2.47;;;;;;;8.36;100.00;100204.97;4993073;28;20123;-71
2023/12/29 04:00:07;;;;;;;20.95;3.08;;;;;;;8.33;100.00;100194.59;4981119;28;20128;-71
2023/12/29 04:02:53;;;;;;;12.95;2.70;;;;;;;8.32;100.00;100198.16;4994087;28;20053;-72
2023/12/29 04:05:39;;;;;;;16.42;2.40;;;;;;;8.32;100.00;100203.44;5016346;28;20045;-71
2023/12/29 04:08:25;;;;;;;8.55;1.67;;;;;;;8.30;100.00;100203.50;5014174;28;20405;-71
2023/12/29 04:11:11;;;;;;;10.63;2.13;;;;;;;8.29;100.00;100207.91;5002047;28;20064;-71
2023/12/29 04:13:57;;;;;;;10.60;2.20;;;;;;;8.28;100.00;100208.81;5015576;28;20045;-71
2023/12/29 04:16:43;;;;;;;14.35;2.22;;;;;;;8.27;100.00;100206.25;5015785;28;20157;-71
2023/12/29 04:19:29;;;;;;;9.43;2.28;;;;;;;8.27;100.00;100207.13;5018210;28;20113;-71
2023/12/29 04:22:14;;;;;;;10.90;1.83;;;;;;;8.29;100.00;100201.78;5016229;28;20038;-72
2023/12/29 04:25:00;;;;;;;13.52;1.98;;;;;;;8.26;100.00;100209.81;5016892;28;20050;-71
2023/12/29 04:27:46;;;;;;;12.07;1.92;;;;;;;8.24;100.00;100217.78;5018008;28;20164;-71
2023/12/29 04:30:32;;;;;;;10.30;2.22;;;;;;;8.23;100.00;100236.34;5016373;28;20095;-70
2023/12/29 04:33:17;;;;;;;16.38;3.10;;;;;;;8.25;100.00;100224.81;5003639;28;20064;-70
2023/12/29 04:36:04;;;;;;;11.27;2.03;;;;;;;8.24;100.00;100215.16;5001271;28;20088;-71
2023/12/29 04:38:49;;;;;;;9.55;1.73;;;;;;;8.25;100.00;100223.94;5004864;28;20445;-71
2023/12/29 04:41:35;;;;;;;11.38;1.92;;;;;;;8.25;100.00;100223.94;5015573;28;20470;-72
2023/12/29 04:44:21;;;;;;;10.02;2.20;;;;;;;8.17;100.00;100208.44;5015893;28;20135;-71
2023/12/29 04:47:07;;;;;;;17.65;2.50;;;;;;;8.16;100.00;100225.22;4998938;28;20041;-71
2023/12/29 04:49:53;;;;;;;14.98;2.42;;;;;;;8.17;100.00;100226.91;5002202;28;20582;-71
2023/12/29 04:52:39;;;;;;;21.08;3.05;;;;;;;8.17;100.00;100248.00;5014695;28;20056;-70
2023/12/29 04:55:24;;;;;;;7.07;2.05;;;;;;;8.18;100.00;100233.06;5002907;28;20092;-71
2023/12/29 04:58:10;;;;;;;15.38;2.60;;;;;;;8.17;100.00;100221.63;5014621;28;20482;-72
2023/12/29 05:00:56;;;;;;;10.10;2.03;;;;;;;8.20;100.00;100226.78;5012794;28;20041;-72
2023/12/29 05:03:42;;;;;;;9.82;2.25;;;;;;;8.19;100.00;100238.28;5015363;28;20503;-72
2023/12/29 05:06:27;;;;;;;14.57;2.30;;;;;;;8.18;100.00;100236.56;5014212;28;20120;-72
2023/12/29 05:09:13;;;;;;;15.48;2.28;;;;;;;8.19;100.00;100234.75;5015169;28;20527;-72
2023/12/29 05:11:59;;;;;;;9.73;2.47;;;;;;;8.18;100.00;100233.06;5010852;28;20046;-71
2023/12/29 05:14:44;;;;;;;9.65;2.33;;;;;;;8.17;100.00;100229.53;4999676;28;20053;-71
2023/12/29 05:17:30;;;;;;;12.10;2.05;;;;;;;8.17;100.00;100237.47;5012513;28;20520;-71
2023/12/29 05:20:16;;;;;;;13.35;1.90;;;;;;;8.16;100.00;100233.13;4998021;28;20553;-71
2023/12/29 05:23:01;;;;;;;16.77;1.98;;;;;;;8.15;100.00;100231.41;5012500;28;20052;-71
2023/12/29 05:25:47;;;;;;;15.30;1.90;;;;;;;8.15;100.00;100220.84;5020231;28;20045;-70
2023/12/29 05:28:39;;;;;;;8.75;2.17;;;;;;;8.13;100.00;100222.72;5013802;28;20120;-71
2023/12/29 05:31:25;;;;;;;10.27;1.73;;;;;;;8.11;100.00;100222.78;5018153;28;20486;-73
2023/12/29 05:34:11;;;;;;;12.00;2.35;;;;;;;8.12;100.00;100226.28;5003592;23;20076;-72
2023/12/29 05:36:58;;;;;;;13.52;2.47;;;;;;;8.11;100.00;100217.50;5011293;28;20048;-72
2023/12/29 05:39:47;;;;;;;13.85;3.20;;;;;;;8.12;100.00;100219.22;5040107;28;20041;-72
2023/12/29 05:42:34;;;;;;;8.93;2.08;;;;;;;8.10;100.00;100215.81;5021019;28;20047;-72
2023/12/29 05:45:22;;;;;;;10.73;2.00;;;;;;;8.12;100.00;100213.09;5012250;28;20041;-73
2023/12/29 05:48:13;;;;;;;15.52;2.08;;;;;;;8.12;100.00;100219.22;5021813;28;20629;-73
2023/12/29 05:50:59;;;;;;;13.27;2.33;;;;;;;8.15;100.00;100223.50;5023310;28;20044;-71
2023/12/29 05:53:45;;;;;;;15.18;2.03;;;;;;;8.16;100.00;100225.22;5024455;28;20040;-72
2023/12/29 05:56:42;;;;;;;17.17;2.38;;;;;;;8.18;100.00;100231.28;5033178;28;20065;-72
2023/12/29 05:59:27;;;;;;;12.80;1.88;;;;;;;8.20;100.00;100232.06;5036658;28;20033;-72
2023/12/29 06:02:14;;;;;;;11.73;2.03;;;;;;;8.23;100.00;100215.25;5036486;28;20036;-72
2023/12/29 06:05:00;;;;;;;9.45;1.98;;;;;;;8.25;100.00;100224.81;5012776;28;20042;-71
2023/12/29 06:07:55;;;;;;;15.45;2.47;;;;;;;8.24;100.00;100217.78;5061156;23;20056;-72
2023/12/29 06:10:41;;;;;;;12.13;2.60;;;;;;;8.28;100.00;100226.41;5045861;28;20044;-72
2023/12/29 06:13:28;;;;;;;11.75;1.98;;;;;;;8.28;100.00;100229.94;5041798;28;20150;-72
2023/12/29 06:16:20;;;;;;;11.10;2.55;;;;;;;8.27;100.00;100228.22;5054566;28;20505;-73
2023/12/29 06:19:06;;;;;;;14.53;2.33;;;;;;;8.26;100.00;100223.88;5045321;28;20049;-72
2023/12/29 06:21:56;;;;;;;17.08;2.92;;;;;;;8.26;100.00;100207.19;5031773;28;20090;-71
2023/12/29 06:24:41;;;;;;;14.25;2.20;;;;;;;8.24;100.00;100227.50;5052260;28;22063;-71
2023/12/29 06:27:28;;;;;;;9.10;2.45;;;;;;;8.22;100.00;100214.38;5057672;28;20063;-71
2023/12/29 06:30:31;;;;;;;11.68;2.10;;;;;;;8.20;100.00;100221.50;5060447;28;20127;-72
2023/12/29 06:33:20;;;;;;;;;;;;;;;8.19;100.00;100227.72;5046562;28;20152;-72
2023/12/29 06:36:06;;;;;;;12.65;2.22;;;;;;;8.18;100.00;100231.28;5057952;28;19960;-71
2023/12/29 06:38:52;;;;;;;12.55;1.83;;;;;;;8.19;100.00;100240.91;5055401;28;20534;-71
2023/12/29 06:41:39;;;;;;;15.15;2.50;;;;;;;8.21;100.00;100241.69;5046390;28;20164;-71
2023/12/29 06:44:25;;;;;;;14.75;2.88;;;;;;;8.23;100.00;100226.63;5042912;28;20043;-71
2023/12/29 06:47:11;;;;;;;17.35;2.53;;;;;;;8.23;100.00;100231.06;5057669;28;20049;-71
2023/12/29 06:49:57;;;;;;;16.60;2.70;;;;;;;8.25;100.00;100229.22;5057092;28;20048;-72
2023/12/29 06:52:42;;;;;;;15.00;3.03;;;;;;;8.26;100.00;100230.91;5057181;28;20160;-73
2023/12/29 06:55:28;;;;;;;10.73;1.98;;;;;;;8.24;100.00;100230.97;5058722;28;20079;-71
2023/12/29 06:58:14;;;;;;;14.32;2.45;;;;;;;8.26;100.00;100230.91;5048428;28;20270;-72
2023/12/29 07:01:00;;;;;;;14.10;2.38;;;;;;;8.28;100.00;100232.56;5056415;28;20110;-72
2023/12/29 07:03:46;;;;;;;11.25;2.65;;;;;;;8.27;100.00;100248.44;5058182;28;20033;-72
2023/12/29 07:06:46;;;;;;;12.88;2.20;;;;;;;8.24;100.00;100232.78;5057021;28;20072;-72
2023/12/29 07:09:36;;;;;;;10.40;1.95;;;;;;;8.26;100.00;100242.34;5058162;28;20087;-71
2023/12/29 07:12:24;;;;;;;11.15;2.13;;;;;;;8.27;100.00;100236.13;5040837;28;20049;-72
2023/12/29 07:15:13;;;;;;;15.07;2.28;;;;;;;8.32;100.00;100235.06;5038083;28;20029;-70
2023/12/29 07:17:59;;;;;;;13.60;2.22;;;;;;;8.33;100.00;100242.06;5038238;28;20045;-69
2023/12/29 07:20:45;;;;;;;17.13;2.50;;;;;;;8.33;100.00;100242.06;5037033;28;20046;-72
2023/12/29 07:23:31;;;;;;;12.70;3.00;;;;;;;8.34;100.00;100241.13;5044359;28;20045;-73
2023/12/29 07:26:16;;;;;;;11.73;2.03;;;;;;;8.36;100.00;100247.19;5023999;28;20083;-72
2023/12/29 07:29:02;;;;;;;12.85;2.22;;;;;;;8.34;100.00;100238.50;5036135;28;20082;-71
2023/12/29 07:31:48;;;;;;;15.77;2.20;;;;;;;8.32;100.00;100248.25;5024564;28;20040;-72
2023/12/29 07:34:34;;;;;;;11.20;2.28;;;;;;;8.31;100.00;100249.16;5037521;28;20079;-72
2023/12/29 07:37:20;;;;;;;16.55;2.85;;;;;;;8.28;100.00;100251.03;5039097;28;20076;-71
2023/12/29 07:40:07;;;;;;;16.35;2.15;;;;;;;8.28;100.00;100256.31;5035986;28;22287;-69
2023/12/29 07:42:53;;;;;;;17.15;2.22;;;;;;;8.25;100.00;100267.00;5044538;28;20055;-72
2023/12/29 07:45:39;;;;;;;12.48;2.33;;;;;;;8.22;100.00;100256.56;5054922;28;20787;-72
2023/12/29 07:48:25;;;;;;;10.93;2.50;;;;;;;8.19;100.00;100254.09;5042648;28;20036;-71
2023/12/29 07:51:11;;;;;;;14.93;2.47;;;;;;;8.17;100.00;100258.56;5046798;28;20033;-71
2023/12/29 07:53:57;;;;;;;10.95;2.03;;;;;;;8.15;100.00;100255.13;5055142;28;20029;-71
2023/12/29 07:56:42;;;;;;;15.30;2.38;;;;;;;8.17;100.00;100249.81;5041781;28;20053;-72
2023/12/29 07:59:28;;;;;;;10.25;1.95;;;;;;;8.17;100.00;100250.66;5045966;28;20052;-71
2023/12/29 08:02:15;;;;;;;13.82;2.00;;;;;;;8.16;100.00;100248.94;5054223;28;20055;-73
2023/12/29 08:05:02;;;;;;;13.55;2.13;;;;;;;8.16;100.00;100254.22;5056900;28;20403;-72
2023/12/29 08:07:47;;;;;;;14.20;2.60;;;;;;;8.17;100.00;100274.38;5045616;28;20064;-72
2023/12/29 08:10:33;;;;;;;13.50;2.40;;;;;;;8.19;100.00;100271.69;5046887;28;20040;-71
2023/12/29 08:13:19;;;;;;;11.98;2.08;;;;;;;8.20;100.00;100273.38;5013853;28;20083;-71
2023/12/29 08:16:05;;;;;;;11.30;2.10;;;;;;;8.19;100.00;100264.63;5019464;28;20048;-71
2023/12/29 08:18:52;;;;;;;11.95;2.60;;;;;;;8.18;100.00;100265.56;5054087;28;20060;-72
2023/12/29 08:21:38;;;;;;;16.88;2.13;;;;;;;8.20;100.00;100283.94;5042202;28;20174;-73
2023/12/29 08:24:24;;;;;;;11.93;2.22;;;;;;;8.20;100.00;100274.25;5052096;28;20090;-72
2023/12/29 08:27:11;;;;;;;11.93;2.17;;;;;;;8.22;100.00;100276.84;5045738;28;20040;-72
2023/12/29 08:29:57;;;;;;;17.98;2.95;;;;;;;8.21;100.00;100281.25;5044215;28;21279;-74
2023/12/29 08:32:43;;;;;;;8.65;1.70;;;;;;;8.17;100.00;100269.09;5057027;28;20064;-73
2023/12/29 08:35:28;;;;;;;11.10;1.77;;;;;;;8.17;100.00;100263.00;5052837;28;20055;-73
2023/12/29 08:38:14;;;;;;;11.40;3.10;;;;;;;8.13;100.00;100270.19;5059733;28;20044;-72
2023/12/29 08:41:00;;;;;;;10.32;1.83;;;;;;;8.09;100.00;100264.19;5045566;28;20491;-73
2023/12/29 08:43:46;;;;;;;13.25;2.03;;;;;;;8.08;100.00;100266.88;5051566;28;20036;-72
2023/12/29 08:46:32;;;;;;;10.50;1.90;;;;;;;8.08;100.00;100266.88;5058423;28;20657;-72
2023/12/29 08:49:18;;;;;;;11.27;1.98;;;;;;;8.06;100.00;100269.59;5052036;28;20040;-72
2023/12/29 08:52:04;;;;;;;13.40;2.15;;;;;;;8.06;100.00;100271.38;5054728;28;20742;-72
2023/12/29 08:54:50;;;;;;;13.73;2.33;;;;;;;8.08;100.00;100269.53;5054682;28;20044;-72
2023/12/29 08:57:36;;;;;;;10.65;1.85;;;;;;;8.09;100.00;100279.13;5040172;28;20194;-73
2023/12/29 09:00:21;;;;;;;12.60;2.47;;;;;;;8.10;100.00;100270.31;5053130;28;20625;-72
2023/12/29 09:03:07;;;;;;;11.95;2.17;;;;;;;8.07;100.00;100266.00;5034451;28;20097;-73
2023/12/29 09:05:54;;;;;;;16.95;2.53;;;;;;;8.09;100.00;100272.09;5042357;28;20156;-72
2023/12/29 09:08:40;;;;;;;14.35;2.35;;;;;;;8.13;100.00;100283.38;5040001;28;20063;-72
2023/12/29 09:11:26;;;;;;;10.23;2.35;;;;;;;8.16;100.00;100264.75;5056000;28;20049;-73
2023/12/29 09:14:12;;;;;;;15.48;2.70;;;;;;;8.19;100.00;100269.03;5052081;28;20048;-73
2023/12/29 09:16:58;;;;;;;15.43;2.30;;;;;;;8.21;100.00;100275.09;5052255;28;21847;-73
2023/12/29 09:19:44;;;;;;;10.88;2.22;;;;;;;8.24;100.00;100275.81;5052832;28;20099;-73
2023/12/29 09:22:32;;;;;;;8.45;1.90;;;;;;;8.29;100.00;100265.91;5054992;28;22485;-72
2023/12/29 09:25:20;;;;;;;9.88;2.20;;;;;;;8.32;100.00;100259.66;5051790;28;20991;-73
2023/12/29 09:28:11;;;;;;;12.40;2.55;;;;;;;8.38;100.00;100263.78;5061905;28;21128;-73
2023/12/29 09:31:16;;;;;;;13.43;2.30;;;;;;;8.42;100.00;100254.81;5046427;28;20180;-74
2023/12/29 09:34:02;;;;;;;9.70;2.03;;;;;;;8.45;100.00;100257.34;5061736;28;20089;-72
2023/12/29 09:36:51;;;;;;;9.07;2.10;;;;;;;8.46;100.00;100251.13;5050731;28;20040;-72
2023/12/29 09:39:37;;;;;;;12.43;2.00;;;;;;;8.48;100.00;100261.59;5056108;28;20051;-73
2023/12/29 09:42:28;;;;;;;11.32;2.40;;;;;;;8.48;100.00;100259.81;5051309;28;20150;-73
2023/12/29 09:45:25;;;;;;;9.60;2.22;;;;;;;8.48;100.00;100258.94;5065538;28;20033;-78
2023/12/29 09:48:13;;;;;;;11.13;1.77;;;;;;;8.50;100.00;100249.19;5025616;28;20047;-73
2023/12/29 09:50:59;;;;;;;11.55;1.77;;;;;;;8.51;100.00;100250.91;5034944;28;20037;-72
2023/12/29 09:53:46;;;;;;;12.82;2.25;;;;;;;8.52;100.00;100257.91;5048887;28;20044;-72
2023/12/29 09:56:32;;;;;;;8.65;2.08;;;;;;;8.52;100.00;100256.16;5035979;28;20044;-74
2023/12/29 09:59:18;;;;;;;17.90;2.58;;;;;;;8.52;100.00;100253.50;5034785;28;20264;-73
2023/12/29 10:02:15;;;;;;;11.23;1.92;;;;;;;8.51;100.00;100259.69;5036847;28;20041;-72
2023/12/29 10:05:03;;;;;;;6.78;2.00;;;;;;;8.49;100.00;100271.25;5036088;28;20105;-72
2023/12/29 10:07:49;;;;;;;8.88;1.50;;;;;;;8.44;100.00;100258.22;5033052;28;20591;-74
2023/12/29 10:10:37;;;;;;;6.30;1.65;;;;;;;8.41;100.00;100267.13;5046934;28;20040;-73
2023/12/29 10:13:23;;;;;;;14.00;1.70;;;;;;;8.36;100.00;100268.28;5029569;28;20071;-72
2023/12/29 10:16:16;;;;;;;11.27;1.50;;;;;;;8.32;100.00;100266.72;5031361;28;20044;-72
2023/12/29 10:19:11;;;;;;;;;;;;;;;8.27;100.00;100274.81;5033981;28;20044;-72
2023/12/29 10:22:08;;;;;;;8.57;1.35;;;;;;;8.18;100.00;100276.13;5018339;28;20516;-72
2023/12/29 10:24:54;;;;;;;10.38;1.42;;;;;;;8.15;100.00;100269.19;5046619;28;20051;-72
2023/12/29 10:27:40;;;;;;;10.50;1.95;;;;;;;8.11;100.00;100282.56;5019320;28;20495;-72
2023/12/29 10:30:26;;;;;;;8.30;1.35;;;;;;;8.05;100.00;100280.22;5028197;28;20567;-72
2023/12/29 10:33:19;;;;;;;7.30;1.80;;;;;;;7.99;100.00;100282.19;5041212;28;20048;-72
2023/12/29 10:36:07;;;;;;;6.07;1.95;;;;;;;7.93;100.00;100277.19;5044385;28;20556;-72
2023/12/29 10:39:07;;;;;;;12.27;2.03;;;;;;;7.90;100.00;100302.81;5028849;28;20074;-72
2023/12/29 10:42:06;;;;;;;9.55;2.30;;;;;;;7.81;100.00;100289.13;5044691;28;20154;-71
2023/12/29 10:45:10;;;;;;;6.50;1.05;;;;;;;7.60;100.00;100281.19;5044694;28;20049;-72
2023/12/29 10:47:55;;;;;;;9.05;1.60;;;;;;;7.48;100.00;100287.81;5047956;28;20127;-72
2023/12/29 10:50:44;;;;;;;8.93;1.55;;;;;;;7.35;100.00;100289.25;5025815;28;20044;-72
2023/12/29 10:53:32;;;;;;;9.90;2.00;;;;;;;7.30;100.00;100293.88;5035162;28;20037;-71
2023/12/29 10:56:22;;;;;;;13.93;2.00;;;;;;;7.25;100.00;100293.19;5037420;28;20310;-72
2023/12/29 10:59:07;;;;;;;7.63;1.67;;;;;;;7.23;100.00;100292.41;5049538;28;20049;-72
2023/12/29 11:01:53;;;;;;;7.50;1.95;;;;;;;7.28;100.00;100311.47;5048806;28;20037;-72
2023/12/29 11:04:41;;;;;;;10.13;1.70;;;;;;;7.34;100.00;100292.78;5045544;28;20772;-72
2023/12/29 11:07:35;;;;;;;8.32;1.77;;;;;;;7.41;100.00;100296.91;5037043;28;20059;-72
2023/12/29 11:10:21;;;;;;;13.10;1.98;;;;;;;7.44;100.00;100299.41;5021461;28;20044;-72
2023/12/29 11:13:08;;;;;;;9.23;1.58;;;;;;;7.47;100.00;100307.19;5032657;28;20036;-70
2023/12/29 11:15:56;;;;;;;11.25;2.00;;;;;;;7.51;100.00;100312.34;5038038;28;20045;-72
2023/12/29 11:18:43;;;;;;;9.63;1.60;;;;;;;7.53;100.00;100316.63;5048329;28;20075;-71
2023/12/29 11:21:30;;;;;;;6.53;1.50;;;;;;;7.51;100.00;100313.19;5047049;28;20047;-73
2023/12/29 11:24:16;;;;;;;10.82;1.73;;;;;;;7.50;100.00;100314.09;5048657;28;20106;-73
2023/12/29 11:27:11;;;;;;;8.63;1.50;;;;;;;7.51;100.00;100320.25;5038683;28;20059;-71
2023/12/29 11:30:03;;;;;;;12.73;1.83;;;;;;;7.50;100.00;100321.13;5048756;28;20348;-72
2023/12/29 11:32:57;;;;;;;10.60;1.65;;;;;;;7.52;100.00;100317.53;5036311;28;20702;-72
2023/12/29 11:35:55;;;;;;;;;;;;;;;7.50;100.00;100322.00;5039677;28;20690;-73
2023/12/29 11:39:13;;;;;;;8.45;1.52;;;;;;;7.48;100.00;100323.84;5057200;28;19925;-73
2023/12/29 11:42:06;;;;;;;5.72;1.67;;;;;;;7.47;100.00;100325.63;5019237;28;20131;-73
2023/12/29 11:44:59;;;;;;;7.50;1.52;;;;;;;7.51;100.00;100323.72;5046438;28;20064;-73
2023/12/29 11:47:45;;;;;;;11.48;2.03;;;;;;;7.48;100.00;100311.53;5030886;28;20124;-74
2023/12/29 11:50:40;;;;;;;12.40;1.50;;;;;;;7.46;100.00;100326.53;5008672;28;20119;-72
2023/12/29 11:53:35;;;;;;;7.97;1.55;;;;;;;7.43;100.00;100325.81;5022676;28;20585;-73
2023/12/29 11:56:21;;;;;;;9.18;1.60;;;;;;;7.44;100.00;100327.53;5041313;28;20040;-72
2023/12/29 11:59:19;;;;;;;6.13;1.73;;;;;;;7.40;100.00;100326.78;5053549;28;20287;-73
2023/12/29 12:02:05;;;;;;;12.45;1.67;;;;;;;7.36;100.00;100327.84;5049292;28;20135;-71
2023/12/29 12:04:54;;;;;;;9.75;1.85;;;;;;;7.33;100.00;100333.22;5056494;28;20095;-73
2023/12/29 12:07:42;;;;;;;11.00;1.90;;;;;;;7.30;100.00;100334.19;5057007;28;20048;-72
2023/12/29 12:10:33;;;;;;;8.60;1.70;;;;;;;7.26;100.00;100352.81;5056644;28;20052;-72
2023/12/29 12:13:42;;;;;;;7.13;1.35;;;;;;;7.20;100.00;100351.31;5057299;28;20063;-72
2023/12/29 12:16:49;;;;;;;6.80;1.50;;;;;;;7.15;100.00;100366.41;5036364;28;20152;-73
2023/12/29 12:19:35;;;;;;;7.60;1.50;;;;;;;7.11;100.00;100368.31;5055543;28;20368;-73
2023/12/29 12:22:24;;;;;;;12.95;1.83;;;;;;;7.04;100.00;100365.03;5040865;28;20048;-73
2023/12/29 12:25:12;;;;;;;10.48;2.17;;;;;;;7.02;100.00;100347.56;5043841;28;20052;-74
2023/12/29 12:27:58;;;;;;;12.77;1.65;;;;;;;7.00;100.00;100352.06;5050784;28;20645;-72
2023/12/29 12:30:44;;;;;;;8.77;1.77;;;;;;;7.02;100.00;100351.09;5056590;28;20045;-75
2023/12/29 12:33:29;;;;;;;6.75;1.35;;;;;;;7.03;100.00;100357.22;5035601;28;20205;-72
2023/12/29 12:36:15;;;;;;;8.90;1.70;;;;;;;7.06;100.00;100367.63;5056714;28;20467;-73
2023/12/29 12:39:06;;;;;;;5.95;1.60;;;;;;;7.08;100.00;100365.78;5060623;28;20037;-73
2023/12/29 12:41:52;;;;;;;6.13;1.50;;;;;;;7.11;100.00;100367.44;5059073;28;20091;-74
2023/12/29 12:44:40;;;;;;;10.07;2.20;;;;;;;7.16;100.00;100355.81;5041885;28;20041;-73
2023/12/29 12:47:31;;;;;;;7.50;2.20;;;;;;;7.19;100.00;100346.91;5041987;28;20587;-73
2023/12/29 12:50:17;;;;;;;5.78;1.35;;;;;;;7.22;100.00;100364.38;5045966;28;20059;-74
2023/12/29 12:53:09;;;;;;;5.18;1.30;;;;;;;7.26;100.00;100366.00;5045628;28;20549;-73
2023/12/29 12:55:55;;;;;;;3.88;1.67;;;;;;;7.28;100.00;100365.00;5027053;28;20116;-72
2023/12/29 12:58:40;;;;;;;9.70;2.25;;;;;;;7.27;100.00;100362.44;5036579;28;20036;-72
2023/12/29 13:01:27;;;;;;;10.82;2.28;;;;;;;7.28;100.00;100374.69;5039617;28;20055;-73
2023/12/29 13:04:13;;;;;;;5.78;1.58;;;;;;;7.30;100.00;100365.81;5036547;28;20033;-70